Time;durP1;ratioP1;P1;durP2;ratioP2;P2;SDS_P1;SDS_P2;PMS_P1;PMS_P2;Temp;Humidity;BMP_temperature;BMP_pressure;BME280_temperature;BME280_humidity;BME280_pressure;Samples;Min_cycle;Max_cycle;Signal;HPM_P1;HPM_P2
2024/03/21 00:00:09;;;;;;;1999.90;999.90;;;15.20;99.90;;;;;;5004776;28;20086;-81
2024/03/21 00:02:38;;;;;;;1999.90;999.90;;;15.10;99.90;;;;;;5011640;28;20026;-70
2024/03/21 00:05:06;;;;;;;1999.90;999.90;;;15.00;99.90;;;;;;5013028;28;20105;-66
2024/03/21 00:07:34;;;;;;;1999.90;999.90;;;14.90;99.90;;;;;;5012963;28;20603;-73
2024/03/21 00:09:59;;;;;;;1999.90;999.90;;;14.80;99.90;;;;;;5013215;28;20096;-66
2024/03/21 00:12:25;;;;;;;1999.90;999.90;;;14.80;99.90;;;;;;5012780;28;20080;-66
2024/03/21 00:14:51;;;;;;;1999.90;999.90;;;14.70;99.90;;;;;;5013138;28;20037;-73
2024/03/21 00:17:16;;;;;;;1999.90;999.90;;;14.60;99.90;;;;;;5013016;28;20032;-67
2024/03/21 00:19:42;;;;;;;1999.90;999.90;;;14.60;99.90;;;;;;5013191;28;20080;-73
2024/03/21 00:22:08;;;;;;;1999.90;999.90;;;14.50;99.90;;;;;;5009497;28;20444;-66
2024/03/21 00:24:37;;;;;;;1999.90;999.90;;;14.50;99.90;;;;;;4992742;28;20033;-66
2024/03/21 00:27:04;;;;;;;1999.90;999.90;;;14.50;99.90;;;;;;4993166;28;20026;-73
2024/03/21 00:29:30;;;;;;;1999.90;999.90;;;14.50;99.90;;;;;;5005324;28;20022;-72
2024/03/21 00:31:56;;;;;;;1999.90;999.90;;;14.50;99.90;;;;;;5012922;28;20018;-73
2024/03/21 00:34:22;;;;;;;1999.90;999.90;;;14.50;99.90;;;;;;5012924;28;20121;-66
2024/03/21 00:36:47;;;;;;;1999.90;999.90;;;14.50;99.90;;;;;;5012242;28;20060;-72
2024/03/21 00:39:24;;;;;;;1999.90;999.90;;;14.50;99.90;;;;;;5012561;28;20030;-66
2024/03/21 00:41:50;;;;;;;1999.90;999.90;;;14.50;99.90;;;;;;5012594;28;20026;-66
2024/03/21 00:44:16;;;;;;;1999.90;999.90;;;14.50;99.90;;;;;;5012573;28;20105;-72
2024/03/21 00:46:42;;;;;;;1999.90;999.90;;;14.50;99.90;;;;;;5012968;28;20061;-73
2024/03/21 00:49:11;;;;;;;1999.90;999.90;;;14.50;99.90;;;;;;5012891;28;20063;-72
2024/03/21 00:51:38;;;;;;;1999.90;999.90;;;14.50;99.90;;;;;;5012467;28;20041;-72
2024/03/21 00:54:05;;;;;;;1999.90;999.90;;;14.50;99.90;;;;;;5012401;28;20030;-72
2024/03/21 00:56:31;;;;;;;1999.90;999.90;;;14.50;99.90;;;;;;5012011;28;20061;-72
2024/03/21 00:58:58;;;;;;;1999.90;999.90;;;14.50;99.90;;;;;;5012018;28;20079;-66
2024/03/21 01:01:25;;;;;;;1999.90;999.90;;;14.50;99.90;;;;;;5012565;28;20061;-72
2024/03/21 01:03:51;;;;;;;1999.90;999.90;;;14.50;99.90;;;;;;5012143;28;20025;-66
2024/03/21 01:06:16;;;;;;;1999.90;999.90;;;14.50;99.90;;;;;;5011714;28;20026;-66
2024/03/21 01:08:42;;;;;;;1999.90;999.90;;;14.40;99.90;;;;;;5012154;28;20481;-72
2024/03/21 01:11:09;;;;;;;1999.90;999.90;;;14.40;99.90;;;;;;5012775;28;20026;-72
2024/03/21 01:13:35;;;;;;;1999.90;999.90;;;14.40;99.90;;;;;;5012435;28;20496;-66
2024/03/21 01:16:01;;;;;;;1999.90;999.90;;;14.30;99.90;;;;;;5011379;28;20037;-73
2024/03/21 01:18:35;;;;;;;1999.90;999.90;;;14.30;99.90;;;;;;5012502;28;20029;-73
2024/03/21 01:21:05;;;;;;;1999.90;999.90;;;14.20;99.90;;;;;;5012306;28;20034;-73
2024/03/21 01:23:32;;;;;;;1999.90;999.90;;;14.10;99.90;;;;;;4997558;28;20544;-66
2024/03/21 01:25:58;;;;;;;1999.90;999.90;;;14.10;99.90;;;;;;4993884;28;20034;-73
2024/03/21 01:28:24;;;;;;;1999.90;999.90;;;14.10;99.90;;;;;;4999436;28;20022;-72
2024/03/21 01:30:50;;;;;;;1999.90;999.90;;;14.10;99.90;;;;;;5015612;28;20141;-66
2024/03/21 01:33:15;;;;;;;1999.90;999.90;;;14.10;99.90;;;;;;5014601;28;20022;-72
2024/03/21 01:35:41;;;;;;;1999.90;999.90;;;14.00;99.90;;;;;;5015771;28;20033;-73
2024/03/21 01:38:07;;;;;;;1999.90;999.90;;;14.00;99.90;;;;;;5015324;28;20057;-66
2024/03/21 01:40:33;;;;;;;1999.90;999.90;;;14.00;99.90;;;;;;5015619;28;20397;-67
2024/03/21 01:42:59;;;;;;;1999.90;999.90;;;13.90;99.90;;;;;;5015428;28;20014;-66
2024/03/21 01:45:27;;;;;;;1999.90;999.90;;;13.90;99.90;;;;;;5015476;28;20026;-66
2024/03/21 01:47:52;;;;;;;1999.90;999.90;;;13.80;99.90;;;;;;5015523;28;20041;-66
2024/03/21 01:50:19;;;;;;;1999.90;999.90;;;13.80;99.90;;;;;;5015518;28;20026;-73
2024/03/21 01:52:45;;;;;;;1999.90;999.90;;;13.80;99.90;;;;;;5015341;28;20072;-66
2024/03/21 01:55:14;;;;;;;1999.90;999.90;;;13.70;99.90;;;;;;5015175;28;20026;-72
2024/03/21 01:57:40;;;;;;;1999.90;999.90;;;13.70;99.90;;;;;;5014104;28;20036;-72
2024/03/21 02:00:09;;;;;;;1999.90;999.90;;;13.70;99.90;;;;;;5015149;28;20100;-72
2024/03/21 02:02:35;;;;;;;1999.90;999.90;;;13.70;99.90;;;;;;5015150;28;20022;-72
2024/03/21 02:05:02;;;;;;;1999.90;999.90;;;13.70;99.90;;;;;;5015238;28;20026;-72
2024/03/21 02:07:27;;;;;;;1999.90;999.90;;;13.70;99.90;;;;;;5014988;28;20069;-66
2024/03/21 02:09:53;;;;;;;1999.90;999.90;;;13.70;99.90;;;;;;5015026;28;20021;-66
2024/03/21 02:12:48;;;;;;;1999.90;999.90;;;13.70;99.90;;;;;;5014974;28;20026;-73
2024/03/21 02:15:14;;;;;;;1999.90;999.90;;;13.70;99.90;;;;;;5015337;28;20511;-72
2024/03/21 02:17:40;;;;;;;1999.90;999.90;;;13.60;99.90;;;;;;5014771;28;20478;-72
2024/03/21 02:20:08;;;;;;;1999.90;999.90;;;13.60;99.90;;;;;;5014467;28;20505;-72
2024/03/21 02:22:36;;;;;;;1999.90;999.90;;;13.60;99.90;;;;;;5007970;28;20013;-66
2024/03/21 02:25:09;;;;;;;1999.90;999.90;;;13.60;99.90;;;;;;4995485;28;20061;-73
2024/03/21 02:27:36;;;;;;;1999.90;999.90;;;13.60;99.90;;;;;;4995285;28;20023;-72
2024/03/21 02:30:02;;;;;;;1999.90;999.90;;;13.60;99.90;;;;;;5011262;28;20412;-73
2024/03/21 02:32:28;;;;;;;1999.90;999.90;;;13.60;99.90;;;;;;5014472;28;20037;-66
2024/03/21 02:34:54;;;;;;;1999.90;999.90;;;13.60;99.90;;;;;;5014306;28;20030;-66
2024/03/21 02:37:20;;;;;;;1999.90;999.90;;;13.60;99.90;;;;;;5013531;28;20050;-73
2024/03/21 02:39:50;;;;;;;1999.90;999.90;;;13.60;99.90;;;;;;5014300;28;20070;-72
2024/03/21 02:42:20;;;;;;;1999.90;999.90;;;13.60;99.90;;;;;;5014170;28;20022;-73
2024/03/21 02:44:49;;;;;;;1999.90;999.90;;;13.60;99.90;;;;;;5014275;28;20018;-72
2024/03/21 02:47:16;;;;;;;1999.90;999.90;;;13.60;99.90;;;;;;5014740;28;20026;-72
2024/03/21 02:49:42;;;;;;;1999.90;999.90;;;13.70;99.90;;;;;;5014486;28;20061;-73
2024/03/21 02:52:08;;;;;;;1999.90;999.90;;;13.70;99.90;;;;;;5013968;28;20077;-72
2024/03/21 02:54:35;;;;;;;1999.90;999.90;;;13.70;99.90;;;;;;5014426;28;20030;-66
2024/03/21 02:57:04;;;;;;;1999.90;999.90;;;13.70;99.90;;;;;;5013079;28;20057;-72
2024/03/21 02:59:33;;;;;;;1999.90;999.90;;;13.80;99.90;;;;;;5014018;28;20060;-66
2024/03/21 03:01:59;;;;;;;1999.90;999.90;;;13.90;99.90;;;;;;5014037;28;20527;-66
2024/03/21 03:04:24;;;;;;;1999.90;999.90;;;13.90;99.90;;;;;;5013823;28;20038;-72
2024/03/21 03:06:50;;;;;;;1999.90;999.90;;;14.00;99.90;;;;;;5013907;28;20049;-72
2024/03/21 03:09:16;;;;;;;1999.90;999.90;;;14.00;99.90;;;;;;5013637;28;20481;-66
2024/03/21 03:11:42;;;;;;;1999.90;999.90;;;13.90;99.90;;;;;;5014076;28;20036;-72
2024/03/21 03:14:08;;;;;;;1999.90;999.90;;;13.90;99.90;;;;;;5013874;28;20033;-72
2024/03/21 03:16:33;;;;;;;1999.90;999.90;;;13.90;99.90;;;;;;5013570;28;20097;-71
2024/03/21 03:19:03;;;;;;;1999.90;999.90;;;13.80;99.90;;;;;;5013801;28;20425;-68
2024/03/21 03:21:28;;;;;;;1999.90;999.90;;;13.80;99.90;;;;;;5013422;28;20022;-75
2024/03/21 03:23:54;;;;;;;1999.90;999.90;;;13.90;99.90;;;;;;4994585;28;20493;-75
2024/03/21 03:26:20;;;;;;;1999.90;999.90;;;13.90;99.90;;;;;;4994323;28;20363;-74
2024/03/21 03:28:45;;;;;;;1999.90;999.90;;;13.80;99.90;;;;;;4999759;28;20020;-74
2024/03/21 03:31:11;;;;;;;1999.90;999.90;;;13.80;99.90;;;;;;5013632;28;20028;-75
2024/03/21 03:36:26;;;;;;;1999.90;999.90;;;13.70;99.90;;;;;;5013274;28;20037;-68
2024/03/21 03:38:51;;;;;;;1999.90;999.90;;;13.60;99.90;;;;;;5013143;28;20644;-68
2024/03/21 03:41:17;;;;;;;1999.90;999.90;;;13.60;99.90;;;;;;5013611;28;20109;-69
2024/03/21 03:43:43;;;;;;;1999.90;999.90;;;13.50;99.90;;;;;;5013519;28;20169;-75
2024/03/21 03:46:08;;;;;;;1999.90;999.90;;;13.40;99.90;;;;;;5013209;28;20057;-75
2024/03/21 03:48:34;;;;;;;1999.90;999.90;;;13.40;99.90;;;;;;5012903;28;20030;-75
2024/03/21 03:51:00;;;;;;;1999.90;999.90;;;13.40;99.90;;;;;;5013022;28;20026;-75
2024/03/21 03:53:26;;;;;;;1999.90;999.90;;;13.40;99.90;;;;;;5013038;28;20030;-74
2024/03/21 03:55:52;;;;;;;1999.90;999.90;;;13.30;99.90;;;;;;5012761;28;20117;-75
2024/03/21 03:58:19;;;;;;;1999.90;999.90;;;13.30;99.90;;;;;;5012404;28;20109;-68
2024/03/21 04:00:44;;;;;;;1999.90;999.90;;;13.30;99.90;;;;;;5012798;28;20050;-75
2024/03/21 04:03:10;;;;;;;1999.90;999.90;;;13.40;99.90;;;;;;5013425;28;20032;-75
2024/03/21 04:05:36;;;;;;;1999.90;999.90;;;13.40;99.90;;;;;;5012996;28;20473;-75
2024/03/21 04:08:01;;;;;;;1999.90;999.90;;;13.40;99.90;;;;;;5013059;28;20045;-75
2024/03/21 04:10:28;;;;;;;1999.90;999.90;;;13.40;99.90;;;;;;5012503;28;20397;-68
2024/03/21 04:12:54;;;;;;;1999.90;999.90;;;13.30;99.90;;;;;;5013361;28;20112;-68
2024/03/21 04:15:20;;;;;;;1999.90;999.90;;;13.20;99.90;;;;;;5012951;28;20105;-68
2024/03/21 04:17:45;;;;;;;1999.90;999.90;;;13.20;99.90;;;;;;5013047;28;20030;-68
2024/03/21 04:20:11;;;;;;;1999.90;999.90;;;13.20;99.90;;;;;;5012637;28;20485;-68
2024/03/21 04:22:37;;;;;;;1999.90;999.90;;;13.20;99.90;;;;;;5005382;28;20023;-75
2024/03/21 04:25:03;;;;;;;1999.90;999.90;;;13.20;99.90;;;;;;4993166;28;20456;-75
2024/03/21 04:27:30;;;;;;;1999.90;999.90;;;13.20;99.90;;;;;;4993483;28;20018;-68
2024/03/21 04:29:55;;;;;;;1999.90;999.90;;;13.20;99.90;;;;;;5008317;28;20108;-75
2024/03/21 04:32:21;;;;;;;1999.90;999.90;;;13.20;99.90;;;;;;5012459;28;20152;-74
2024/03/21 04:34:47;;;;;;;1999.90;999.90;;;13.20;99.90;;;;;;5012355;28;20172;-68
2024/03/21 04:37:17;;;;;;;1999.90;999.90;;;13.10;99.90;;;;;;5012516;28;20055;-75
2024/03/21 04:39:45;;;;;;;1999.90;999.90;;;13.20;99.90;;;;;;5012335;28;20506;-75
2024/03/21 04:42:15;;;;;;;1999.90;999.90;;;13.20;99.90;;;;;;5012788;28;20022;-75
2024/03/21 04:44:41;;;;;;;1999.90;999.90;;;13.20;99.90;;;;;;5012739;28;20034;-75
2024/03/21 04:47:07;;;;;;;1999.90;999.90;;;13.20;99.90;;;;;;5013206;28;20034;-68
2024/03/21 04:49:32;;;;;;;1999.90;999.90;;;13.10;99.90;;;;;;5012765;28;20443;-75
2024/03/21 04:51:58;;;;;;;1999.90;999.90;;;13.00;99.90;;;;;;5012554;28;20022;-75
2024/03/21 04:54:24;;;;;;;1999.90;999.90;;;13.00;99.90;;;;;;5012481;28;20455;-75
2024/03/21 04:56:49;;;;;;;1999.90;999.90;;;13.00;99.90;;;;;;5011783;28;20022;-74
2024/03/21 04:59:15;;;;;;;1999.90;999.90;;;13.00;99.90;;;;;;5012307;28;20033;-68
2024/03/21 05:01:40;;;;;;;1999.90;999.90;;;13.00;99.90;;;;;;5014395;28;20100;-75
2024/03/21 05:04:06;;;;;;;1999.90;999.90;;;13.10;99.90;;;;;;5015772;28;20465;-74
2024/03/21 05:06:32;;;;;;;1999.90;999.90;;;13.10;99.90;;;;;;5014494;28;20061;-69
2024/03/21 05:08:57;;;;;;;1999.90;999.90;;;13.10;99.90;;;;;;5016214;28;20018;-75
2024/03/21 05:11:23;;;;;;;1999.90;999.90;;;13.00;99.90;;;;;;5016062;28;20475;-69
2024/03/21 05:13:50;;;;;;;1999.90;999.90;;;13.00;99.90;;;;;;5016288;28;20034;-75
2024/03/21 05:16:16;;;;;;;1999.90;999.90;;;13.00;99.90;;;;;;5015950;28;20029;-75
2024/03/21 05:18:42;;;;;;;1999.90;999.90;;;12.90;99.90;;;;;;5015804;28;20100;-68
2024/03/21 05:21:09;;;;;;;1999.90;999.90;;;12.90;99.90;;;;;;5015873;28;20080;-75
2024/03/21 05:23:34;;;;;;;1999.90;999.90;;;12.80;99.90;;;;;;5000918;28;20034;-68
2024/03/21 05:26:00;;;;;;;1999.90;999.90;;;12.80;99.90;;;;;;4996250;28;20037;-75
2024/03/21 05:28:27;;;;;;;1999.90;999.90;;;12.70;99.90;;;;;;4999714;28;20026;-75
2024/03/21 05:30:52;;;;;;;1999.90;999.90;;;12.70;99.90;;;;;;5015963;28;20041;-75
2024/03/21 05:33:18;;;;;;;1999.90;999.90;;;12.70;99.90;;;;;;5015706;28;20112;-68
2024/03/21 05:35:44;;;;;;;1999.90;999.90;;;12.70;99.90;;;;;;5015766;28;20034;-75
2024/03/21 05:38:11;;;;;;;1999.90;999.90;;;12.70;99.90;;;;;;5015444;28;20030;-69
2024/03/21 05:40:39;;;;;;;1999.90;999.90;;;12.80;99.90;;;;;;5015642;28;20033;-74
2024/03/21 05:43:07;;;;;;;1999.90;999.90;;;13.00;99.90;;;;;;5015574;28;20517;-68
2024/03/21 05:45:33;;;;;;;1999.90;999.90;;;13.10;99.90;;;;;;5014623;28;20018;-68
2024/03/21 05:47:59;;;;;;;1999.90;999.90;;;13.20;99.90;;;;;;5015529;28;20030;-75
2024/03/21 05:50:24;;;;;;;1999.90;999.90;;;13.30;99.90;;;;;;5015376;28;20079;-75
2024/03/21 05:52:50;;;;;;;1999.90;999.90;;;13.40;99.90;;;;;;5015628;28;20026;-68
2024/03/21 05:55:15;;;;;;;1999.90;999.90;;;13.30;99.90;;;;;;5015211;28;20030;-75
2024/03/21 05:57:41;;;;;;;1999.90;999.90;;;13.20;99.90;;;;;;5014408;28;20052;-75
2024/03/21 06:00:16;;;;;;;1999.90;999.90;;;13.20;99.90;;;;;;5013947;28;20084;-74
2024/03/21 06:02:42;;;;;;;1999.90;999.90;;;13.20;99.90;;;;;;5014698;28;20084;-68
2024/03/21 06:05:07;;;;;;;1999.90;999.90;;;13.20;99.90;;;;;;5015470;28;20026;-68
2024/03/21 06:07:33;;;;;;;1999.90;999.90;;;13.30;99.90;;;;;;5014694;28;20105;-69
2024/03/21 06:09:59;;;;;;;1999.90;999.90;;;13.30;99.90;;;;;;5016298;28;20018;-75
2024/03/21 06:12:24;;;;;;;1999.90;999.90;;;13.30;99.90;;;;;;5034257;28;20484;-69
2024/03/21 06:14:50;;;;;;;1999.90;999.90;;;13.30;99.90;;;;;;5034148;28;20026;-75
2024/03/21 06:17:15;;;;;;;1999.90;999.90;;;13.30;99.90;;;;;;5034226;28;20403;-68
2024/03/21 06:19:41;;;;;;;1999.90;999.90;;;13.10;99.90;;;;;;5034488;28;20030;-68
2024/03/21 06:22:07;;;;;;;1999.90;999.90;;;13.10;99.90;;;;;;5015066;28;20076;-75
2024/03/21 06:24:32;;;;;;;1999.90;999.90;;;13.20;99.90;;;;;;5014407;28;20485;-68
2024/03/21 06:26:58;;;;;;;1999.90;999.90;;;13.20;99.90;;;;;;5014014;28;20022;-68
2024/03/21 06:29:27;;;;;;;1999.90;999.90;;;13.30;99.90;;;;;;5009771;28;20101;-74
2024/03/21 06:31:53;;;;;;;1999.90;999.90;;;13.30;99.90;;;;;;5005441;28;20030;-75
2024/03/21 06:34:19;;;;;;;1999.90;999.90;;;13.40;99.90;;;;;;4994315;28;20496;-75
2024/03/21 06:36:44;;;;;;;1999.90;999.90;;;13.50;99.90;;;;;;5011735;28;20038;-68
2024/03/21 06:39:12;;;;;;;1999.90;999.90;;;13.50;99.90;;;;;;5011304;28;20029;-75
2024/03/21 06:41:38;;;;;;;1999.90;999.90;;;13.60;99.90;;;;;;5014132;28;20033;-75
2024/03/21 06:44:04;;;;;;;1999.90;999.90;;;13.80;99.90;;;;;;5008849;28;20038;-75
2024/03/21 06:46:30;;;;;;;1999.90;999.90;;;13.90;99.90;;;;;;5012041;28;20109;-75
2024/03/21 06:48:55;;;;;;;1999.90;999.90;;;14.10;99.90;;;;;;5007647;28;20114;-68
2024/03/21 06:51:21;;;;;;;1999.90;999.90;;;14.20;99.90;;;;;;5004661;28;20377;-75
2024/03/21 06:53:47;;;;;;;1999.90;999.90;;;14.30;99.90;;;;;;5007989;28;20026;-75
2024/03/21 06:56:12;;;;;;;1999.90;999.90;;;14.40;99.90;;;;;;5021646;28;20072;-75
2024/03/21 06:58:38;;;;;;;1999.90;999.90;;;14.40;99.90;;;;;;5009860;28;20030;-75
2024/03/21 07:01:03;;;;;;;1999.90;999.90;;;14.50;99.90;;;;;;5008691;28;20080;-75
2024/03/21 07:03:29;;;;;;;1999.90;999.90;;;14.50;99.90;;;;;;5000130;28;20034;-75
2024/03/21 07:05:56;;;;;;;1999.90;999.90;;;14.40;99.90;;;;;;5011998;28;20030;-68
2024/03/21 07:08:22;;;;;;;1999.90;999.90;;;14.50;99.90;;;;;;5006418;28;20531;-69
2024/03/21 07:10:49;;;;;;;1999.90;999.90;;;14.50;99.90;;;;;;5008324;28;20019;-75
2024/03/21 07:13:15;;;;;;;1999.90;999.90;;;14.50;99.90;;;;;;5001946;28;20465;-75
2024/03/21 07:15:44;;;;;;;1999.90;999.90;;;14.50;99.90;;;;;;5016614;28;20029;-69
2024/03/21 07:18:12;;;;;;;1999.90;999.90;;;14.40;99.90;;;;;;5011176;28;20033;-75
2024/03/21 07:20:38;;;;;;;1999.90;999.90;;;14.40;99.90;;;;;;5010689;28;20026;-69
2024/03/21 07:23:03;;;;;;;1999.90;999.90;;;14.40;99.90;;;;;;5011891;28;20374;-75
2024/03/21 07:25:29;;;;;;;1999.90;999.90;;;14.40;99.90;;;;;;5012292;28;20032;-68
2024/03/21 07:27:55;;;;;;;1999.90;999.90;;;14.40;99.90;;;;;;5012018;28;20116;-68
2024/03/21 07:30:20;;;;;;;1999.90;999.90;;;14.30;99.90;;;;;;5007064;28;20489;-74
2024/03/21 07:32:49;;;;;;;1999.90;999.90;;;14.20;99.90;;;;;;5008268;28;20039;-68
2024/03/21 07:35:15;;;;;;;1999.90;999.90;;;14.20;99.90;;;;;;5006441;28;20030;-75
2024/03/21 07:37:41;;;;;;;1999.90;999.90;;;14.10;99.90;;;;;;5009417;28;20033;-74
2024/03/21 07:40:07;;;;;;;1999.90;999.90;;;14.20;99.90;;;;;;5009215;28;20034;-75
2024/03/21 07:42:33;;;;;;;1999.90;999.90;;;14.40;99.90;;;;;;5008127;28;20040;-75
2024/03/21 07:45:01;;;;;;;1999.90;999.90;;;15.00;99.90;;;;;;5006127;28;20496;-75
2024/03/21 07:47:27;;;;;;;1999.90;999.90;;;15.20;99.90;;;;;;5006070;28;20393;-75
2024/03/21 07:49:54;;;;;;;1999.90;999.90;;;14.80;99.90;;;;;;5008666;28;20046;-75
2024/03/21 07:52:20;;;;;;;1999.90;999.90;;;14.60;99.90;;;;;;5012033;28;20029;-74
2024/03/21 07:54:46;;;;;;;1999.90;999.90;;;14.50;99.90;;;;;;5007905;28;20030;-68
2024/03/21 07:57:12;;;;;;;1999.90;999.90;;;14.50;99.90;;;;;;5009437;28;20052;-74
2024/03/21 07:59:37;;;;;;;1999.90;999.90;;;14.40;99.90;;;;;;5009089;28;20127;-74
2024/03/21 08:02:04;;;;;;;1999.90;999.90;;;14.60;99.90;;;;;;5006320;28;20418;-75
2024/03/21 08:04:29;;;;;;;1999.90;999.90;;;14.80;99.90;;;;;;5004597;28;20030;-75
2024/03/21 08:06:57;;;;;;;1999.90;999.90;;;15.20;99.90;;;;;;5010414;28;20559;-77
2024/03/21 08:09:23;;;;;;;1999.90;999.90;;;15.90;99.90;;;;;;5012278;28;20042;-69
2024/03/21 08:11:49;;;;;;;1999.90;999.90;;;18.30;99.90;;;;;;5004909;28;20037;-68
2024/03/21 08:14:14;;;;;;;1999.90;999.90;;;18.60;99.90;;;;;;5006892;28;20060;-73
2024/03/21 08:16:40;;;;;;;1999.90;999.90;;;20.10;99.90;;;;;;5009550;28;20435;-74
2024/03/21 08:19:06;;;;;;;1999.90;999.90;;;21.30;99.90;;;;;;5009807;28;20037;-74
2024/03/21 08:21:32;;;;;;;1999.90;999.90;;;22.20;99.90;;;;;;5008137;28;20423;-68
2024/03/21 08:23:57;;;;;;;1999.90;999.90;;;22.90;99.90;;;;;;5009740;28;20044;-67
2024/03/21 08:26:23;;;;;;;1999.90;999.90;;;23.30;99.90;;;;;;4996424;28;20105;-73
2024/03/21 08:28:49;;;;;;;1999.90;999.90;;;23.50;99.90;;;;;;5007493;28;20468;-68
2024/03/21 08:31:14;;;;;;;1999.90;999.90;;;22.30;99.90;;;;;;5004867;28;20037;-69
2024/03/21 08:33:40;;;;;;;1999.90;999.90;;;20.70;99.90;;;;;;5005904;28;20181;-67
2024/03/21 08:36:06;;;;;;;1999.90;999.90;;;19.10;99.90;;;;;;5010160;28;20030;-67
2024/03/21 08:38:31;;;;;;;1999.90;999.90;;;19.90;99.90;;;;;;5014583;28;20061;-68
2024/03/21 08:40:57;;;;;;;1999.90;999.90;;;21.50;99.90;;;;;;5012191;28;20062;-73
2024/03/21 08:43:23;;;;;;;1999.90;999.90;;;23.10;99.90;;;;;;5006432;28;20424;-68
2024/03/21 08:45:49;;;;;;;1999.90;999.90;;;23.60;99.90;;;;;;5012958;28;20031;-74
2024/03/21 08:48:16;;;;;;;1999.90;999.90;;;24.00;99.90;;;;;;5009396;28;20037;-68
2024/03/21 08:50:45;;;;;;;1999.90;999.90;;;23.90;99.90;;;;;;5013657;28;20497;-73
2024/03/21 08:53:10;;;;;;;1999.90;999.90;;;24.00;99.90;;;;;;5012103;28;20049;-72
2024/03/21 08:55:36;;;;;;;1999.90;999.90;;;23.10;99.90;;;;;;5011100;28;20034;-73
2024/03/21 08:58:04;;;;;;;1999.90;999.90;;;23.50;99.90;;;;;;5013765;28;20034;-74
2024/03/21 09:00:32;;;;;;;1999.90;999.90;;;24.20;99.90;;;;;;5013707;28;20045;-68
2024/03/21 09:02:59;;;;;;;1999.90;999.90;;;25.00;99.90;;;;;;5012826;28;20069;-73
2024/03/21 09:05:25;;;;;;;1999.90;999.90;;;25.40;99.90;;;;;;5011106;28;20025;-68
2024/03/21 09:07:50;;;;;;;1999.90;999.90;;;25.50;99.90;;;;;;5013952;28;20035;-73
2024/03/21 09:10:16;;;;;;;1999.90;999.90;;;25.40;99.90;;;;;;5012309;28;20153;-73
2024/03/21 09:12:42;;;;;;;1999.90;999.90;;;25.20;99.90;;;;;;5011902;28;20065;-68
2024/03/21 09:15:13;;;;;;;1999.90;999.90;;;25.80;99.90;;;;;;5014044;28;20044;-74
2024/03/21 09:17:39;;;;;;;1999.90;999.90;;;26.00;99.90;;;;;;5011088;28;20077;-74
2024/03/21 09:20:07;;;;;;;1999.90;999.90;;;26.30;99.90;;;;;;5013717;28;20527;-74
2024/03/21 09:22:34;;;;;;;1999.90;999.90;;;26.50;99.90;;;;;;5005623;28;20040;-75
2024/03/21 09:24:59;;;;;;;1999.90;999.90;;;26.40;99.90;;;;;;5013695;28;20319;-69
2024/03/21 09:27:25;;;;;;;1999.90;999.90;;;26.30;99.90;;;;;;5011206;28;20041;-74
2024/03/21 09:29:51;;;;;;;1999.90;999.90;;;25.10;99.90;;;;;;5012534;28;20033;-68
2024/03/21 09:32:17;;;;;;;1999.90;999.90;;;24.20;99.90;;;;;;5012972;28;20037;-68
2024/03/21 09:34:47;;;;;;;1999.90;999.90;;;23.30;99.90;;;;;;5011124;28;20072;-69
2024/03/21 09:37:16;;;;;;;1999.90;999.90;;;23.30;99.90;;;;;;5009788;28;20034;-74
2024/03/21 09:39:42;;;;;;;1999.90;999.90;;;24.10;99.90;;;;;;5010357;28;20105;-68
2024/03/21 09:42:12;;;;;;;1999.90;999.90;;;24.10;99.90;;;;;;5007674;28;20164;-74
2024/03/21 09:44:39;;;;;;;1999.90;999.90;;;23.50;99.90;;;;;;5012306;28;20026;-67
2024/03/21 09:47:08;;;;;;;1999.90;999.90;;;22.60;99.90;;;;;;5012495;28;20048;-75
2024/03/21 09:49:34;;;;;;;1999.90;999.90;;;22.20;99.90;;;;;;5012597;28;20033;-74
2024/03/21 09:51:59;;;;;;;1999.90;999.90;;;21.80;99.90;;;;;;5008618;28;20409;-74
2024/03/21 09:54:25;;;;;;;1999.90;999.90;;;21.40;99.90;;;;;;5009810;28;20034;-74
2024/03/21 09:56:53;;;;;;;1999.90;999.90;;;21.40;99.90;;;;;;5001494;28;20034;-67
2024/03/21 09:59:20;;;;;;;1999.90;999.90;;;21.30;99.90;;;;;;5012940;28;20033;-74
2024/03/21 10:01:46;;;;;;;1999.90;999.90;;;21.30;99.90;;;;;;5012067;28;20132;-74
2024/03/21 10:04:12;;;;;;;1999.90;999.90;;;21.00;99.90;;;;;;5011932;28;20072;-74
2024/03/21 10:06:44;;;;;;;1999.90;999.90;;;20.60;99.90;;;;;;5010437;28;20594;-74
2024/03/21 10:09:10;;;;;;;1999.90;999.90;;;20.80;99.90;;;;;;5011447;28;20025;-68
2024/03/21 10:11:36;;;;;;;1999.90;999.90;;;20.50;99.90;;;;;;5006837;28;20444;-73
2024/03/21 10:14:01;;;;;;;1999.90;999.90;;;20.20;99.90;;;;;;5011935;28;20044;-74
2024/03/21 10:16:29;;;;;;;1999.90;999.90;;;19.90;99.90;;;;;;5006593;28;20481;-74
2024/03/21 10:18:54;;;;;;;1999.90;999.90;;;20.30;99.90;;;;;;5007450;28;20108;-74
2024/03/21 10:21:22;;;;;;;1999.90;999.90;;;20.40;99.90;;;;;;5011408;28;20034;-67
2024/03/21 10:23:49;;;;;;;1999.90;999.90;;;20.10;99.90;;;;;;5006461;28;20079;-68
2024/03/21 10:26:17;;;;;;;1999.90;999.90;;;20.00;99.90;;;;;;5021152;28;20030;-73
2024/03/21 10:28:44;;;;;;;1999.90;999.90;;;20.50;99.90;;;;;;4996338;28;20037;-74
2024/03/21 10:31:14;;;;;;;1999.90;999.90;;;20.40;99.90;;;;;;4993730;28;20026;-67
2024/03/21 10:33:43;;;;;;;1999.90;999.90;;;20.30;99.90;;;;;;5012119;28;20029;-68
2024/03/21 10:36:11;;;;;;;1999.90;999.90;;;20.30;99.90;;;;;;5011850;28;20022;-68
2024/03/21 10:38:37;;;;;;;1999.90;999.90;;;20.20;99.90;;;;;;5012064;28;20472;-68
2024/03/21 10:41:23;;;;;;;1999.90;999.90;;;20.50;99.90;;;;;;5011952;28;20121;-73
2024/03/21 10:43:54;;;;;;;1999.90;999.90;;;20.60;99.90;;;;;;5009551;28;20512;-68
2024/03/21 10:46:23;;;;;;;1999.90;999.90;;;20.70;99.90;;;;;;5010835;28;20083;-67
2024/03/21 10:48:49;;;;;;;1999.90;999.90;;;20.60;99.90;;;;;;5007833;28;20386;-73
2024/03/21 10:51:18;;;;;;;1999.90;999.90;;;20.50;99.90;;;;;;5003538;28;20544;-73
2024/03/21 10:53:55;;;;;;;1999.90;999.90;;;20.50;99.90;;;;;;5009979;28;20061;-73
2024/03/21 10:56:27;;;;;;;1999.90;999.90;;;20.30;99.90;;;;;;5006738;28;20030;-73
2024/03/21 10:58:57;;;;;;;1999.90;999.90;;;20.50;99.90;;;;;;4997119;28;20060;-67
2024/03/21 11:01:36;;;;;;;1999.90;999.90;;;20.70;99.90;;;;;;5010197;28;20124;-72
2024/03/21 11:04:12;;;;;;;1999.90;999.90;;;20.90;99.90;;;;;;5009477;28;20030;-67
2024/03/21 11:06:46;;;;;;;1999.90;999.90;;;21.00;99.90;;;;;;5011275;28;20034;-73
2024/03/21 11:09:14;;;;;;;1999.90;999.90;;;21.10;99.90;;;;;;5010966;28;20180;-75
2024/03/21 11:11:40;;;;;;;1999.90;999.90;;;21.30;99.90;;;;;;5006970;28;20079;-76
2024/03/21 11:14:08;;;;;;;1999.90;999.90;;;21.20;99.90;;;;;;4999765;28;20034;-71
2024/03/21 11:16:35;;;;;;;1999.90;999.90;;;21.20;99.90;;;;;;4999611;28;20566;-72
2024/03/21 11:19:13;;;;;;;1999.90;999.90;;;21.40;99.90;;;;;;5040259;28;20451;-68
2024/03/21 11:21:41;;;;;;;1999.90;999.90;;;21.40;99.90;;;;;;5052864;28;20562;-74
2024/03/21 11:24:14;;;;;;;1999.90;999.90;;;21.50;99.90;;;;;;5046723;28;20456;-74
2024/03/21 11:26:41;;;;;;;1999.90;999.90;;;21.40;99.90;;;;;;5050420;28;20037;-68
2024/03/21 11:29:12;;;;;;;1999.90;999.90;;;21.60;99.90;;;;;;5046900;28;20136;-74
2024/03/21 11:31:41;;;;;;;1999.90;999.90;;;21.90;99.90;;;;;;5046860;28;20108;-68
2024/03/21 11:34:07;;;;;;;1999.90;999.90;;;21.90;99.90;;;;;;5046656;28;20030;-68
2024/03/21 11:36:34;;;;;;;1999.90;999.90;;;21.80;99.90;;;;;;5047553;28;20560;-69
2024/03/21 11:39:00;;;;;;;1999.90;999.90;;;22.00;99.90;;;;;;5047710;28;20034;-68
2024/03/21 11:41:26;;;;;;;1999.90;999.90;;;22.00;99.90;;;;;;5047130;28;20034;-68
2024/03/21 11:43:53;;;;;;;1999.90;999.90;;;22.20;99.90;;;;;;5047283;28;20591;-68
2024/03/21 11:46:20;;;;;;;1999.90;999.90;;;22.40;99.90;;;;;;5047212;28;20096;-68
2024/03/21 11:49:10;;;;;;;1999.90;999.90;;;22.50;99.90;;;;;;5046746;28;20535;-68
2024/03/21 11:51:36;;;;;;;1999.90;999.90;;;22.40;99.90;;;;;;5045186;28;20029;-68
2024/03/21 11:54:04;;;;;;;1999.90;999.90;;;22.50;99.90;;;;;;5048528;28;20029;-69
2024/03/21 11:56:33;;;;;;;1999.90;999.90;;;22.50;99.90;;;;;;5041959;28;20041;-68
2024/03/21 11:59:03;;;;;;;1999.90;999.90;;;22.40;99.90;;;;;;5046489;28;20037;-68